sensor_id;sensor_type;location;lat;lon;timestamp;temperature;humidity
8715;DHT22;4394;51.208;8.904;2022-11-20T00:00:05;-2.80;99.90
8715;DHT22;4394;51.208;8.904;2022-11-20T00:02:53;-2.80;99.90
8715;DHT22;4394;51.208;8.904;2022-11-20T00:05:41;-2.80;99.90
8715;DHT22;4394;51.208;8.904;2022-11-20T00:08:29;-2.90;99.90
8715;DHT22;4394;51.208;8.904;2022-11-20T00:11:20;-3.00;99.90
8715;DHT22;4394;51.208;8.904;2022-11-20T00:14:12;-3.00;99.90
8715;DHT22;4394;51.208;8.904;2022-11-20T00:17:02;-3.10;99.90
8715;DHT22;4394;51.208;8.904;2022-11-20T00:19:50;-3.10;99.90
8715;DHT22;4394;51.208;8.904;2022-11-20T00:22:39;-3.00;99.90
8715;DHT22;4394;51.208;8.904;2022-11-20T00:25:27;-3.00;99.90
8715;DHT22;4394;51.208;8.904;2022-11-20T00:28:15;-2.90;99.90
8715;DHT22;4394;51.208;8.904;2022-11-20T00:31:05;-3.00;99.90
8715;DHT22;4394;51.208;8.904;2022-11-20T00:33:55;-3.00;99.90
8715;DHT22;4394;51.208;8.904;2022-11-20T00:36:43;-3.00;99.90
8715;DHT22;4394;51.208;8.904;2022-11-20T00:39:31;-2.90;99.90
8715;DHT22;4394;51.208;8.904;2022-11-20T00:42:19;-2.80;99.90
8715;DHT22;4394;51.208;8.904;2022-11-20T00:45:08;-2.90;99.90
8715;DHT22;4394;51.208;8.904;2022-11-20T00:47:56;-3.00;99.90
8715;DHT22;4394;51.208;8.904;2022-11-20T00:50:45;-3.10;99.90
8715;DHT22;4394;51.208;8.904;2022-11-20T00:53:33;-3.10;99.90
8715;DHT22;4394;51.208;8.904;2022-11-20T00:56:22;-3.10;99.90
8715;DHT22;4394;51.208;8.904;2022-11-20T00:59:10;-3.10;99.90
8715;DHT22;4394;51.208;8.904;2022-11-20T01:01:58;-3.10;99.90
8715;DHT22;4394;51.208;8.904;2022-11-20T01:04:46;-3.10;99.90
8715;DHT22;4394;51.208;8.904;2022-11-20T01:07:36;-3.10;99.90
8715;DHT22;4394;51.208;8.904;2022-11-20T01:10:24;-3.10;99.90
8715;DHT22;4394;51.208;8.904;2022-11-20T01:13:12;-3.00;99.90
8715;DHT22;4394;51.208;8.904;2022-11-20T01:16:19;-3.00;99.90
8715;DHT22;4394;51.208;8.904;2022-11-20T01:19:11;-3.00;99.90
8715;DHT22;4394;51.208;8.904;2022-11-20T01:22:04;-2.90;99.90
8715;DHT22;4394;51.208;8.904;2022-11-20T01:24:53;-2.90;99.90
8715;DHT22;4394;51.208;8.904;2022-11-20T01:27:41;-2.90;99.90
8715;DHT22;4394;51.208;8.904;2022-11-20T01:30:29;-2.90;99.90
8715;DHT22;4394;51.208;8.904;2022-11-20T01:33:17;-2.90;99.90
8715;DHT22;4394;51.208;8.904;2022-11-20T01:36:06;-3.00;99.90
8715;DHT22;4394;51.208;8.904;2022-11-20T01:38:56;-3.00;99.90
8715;DHT22;4394;51.208;8.904;2022-11-20T01:41:46;-3.10;99.90
8715;DHT22;4394;51.208;8.904;2022-11-20T01:44:57;-3.20;99.90
8715;DHT22;4394;51.208;8.904;2022-11-20T01:47:46;-3.00;99.90
8715;DHT22;4394;51.208;8.904;2022-11-20T01:50:36;-3.20;99.90
8715;DHT22;4394;51.208;8.904;2022-11-20T01:53:27;-3.30;99.90
8715;DHT22;4394;51.208;8.904;2022-11-20T01:56:16;-3.30;99.90
8715;DHT22;4394;51.208;8.904;2022-11-20T01:59:07;-3.40;99.90
8715;DHT22;4394;51.208;8.904;2022-11-20T02:01:56;-3.40;99.90
8715;DHT22;4394;51.208;8.904;2022-11-20T02:04:45;-3.50;99.90
8715;DHT22;4394;51.208;8.904;2022-11-20T02:07:34;-3.60;99.90
8715;DHT22;4394;51.208;8.904;2022-11-20T02:10:22;-3.60;99.90
8715;DHT22;4394;51.208;8.904;2022-11-20T02:13:11;-3.60;99.90
8715;DHT22;4394;51.208;8.904;2022-11-20T02:16:21;-3.70;99.90
8715;DHT22;4394;51.208;8.904;2022-11-20T02:19:16;-3.50;99.90
8715;DHT22;4394;51.208;8.904;2022-11-20T02:22:09;-3.50;99.90
8715;DHT22;4394;51.208;8.904;2022-11-20T02:25:01;-3.40;99.90
8715;DHT22;4394;51.208;8.904;2022-11-20T02:27:50;-3.30;99.90
8715;DHT22;4394;51.208;8.904;2022-11-20T02:30:39;-3.30;99.90
8715;DHT22;4394;51.208;8.904;2022-11-20T02:33:27;-3.30;99.90
8715;DHT22;4394;51.208;8.904;2022-11-20T02:36:16;-3.30;99.90
8715;DHT22;4394;51.208;8.904;2022-11-20T02:39:04;-3.10;99.90
8715;DHT22;4394;51.208;8.904;2022-11-20T02:41:55;-3.10;99.90
8715;DHT22;4394;51.208;8.904;2022-11-20T02:44:44;-3.00;99.90
8715;DHT22;4394;51.208;8.904;2022-11-20T02:47:32;-2.90;99.90
8715;DHT22;4394;51.208;8.904;2022-11-20T02:50:21;-2.90;99.90
8715;DHT22;4394;51.208;8.904;2022-11-20T02:53:09;-2.80;99.90
8715;DHT22;4394;51.208;8.904;2022-11-20T02:55:57;-2.80;99.90
8715;DHT22;4394;51.208;8.904;2022-11-20T02:58:47;-2.80;99.90
8715;DHT22;4394;51.208;8.904;2022-11-20T03:01:35;-2.80;99.90
8715;DHT22;4394;51.208;8.904;2022-11-20T03:04:23;-2.70;99.90
8715;DHT22;4394;51.208;8.904;2022-11-20T03:07:12;-2.70;99.90
8715;DHT22;4394;51.208;8.904;2022-11-20T03:10:00;-2.60;99.90
8715;DHT22;4394;51.208;8.904;2022-11-20T03:12:53;-2.60;99.90
8715;DHT22;4394;51.208;8.904;2022-11-20T03:15:42;-2.50;99.90
8715;DHT22;4394;51.208;8.904;2022-11-20T03:18:30;-2.50;99.90
8715;DHT22;4394;51.208;8.904;2022-11-20T03:21:18;-2.40;99.90
8715;DHT22;4394;51.208;8.904;2022-11-20T03:24:07;-2.30;99.90
8715;DHT22;4394;51.208;8.904;2022-11-20T03:26:55;-2.20;99.90
8715;DHT22;4394;51.208;8.904;2022-11-20T03:29:43;-2.20;99.90
8715;DHT22;4394;51.208;8.904;2022-11-20T03:32:32;-2.10;99.90
8715;DHT22;4394;51.208;8.904;2022-11-20T03:35:20;-2.10;99.90
8715;DHT22;4394;51.208;8.904;2022-11-20T03:38:09;-2.00;99.90
8715;DHT22;4394;51.208;8.904;2022-11-20T03:40:59;-2.00;99.90
8715;DHT22;4394;51.208;8.904;2022-11-20T03:43:48;-1.90;99.90
8715;DHT22;4394;51.208;8.904;2022-11-20T03:46:37;-1.90;99.90
8715;DHT22;4394;51.208;8.904;2022-11-20T03:49:27;-1.80;99.90
8715;DHT22;4394;51.208;8.904;2022-11-20T03:52:15;-1.80;99.90
8715;DHT22;4394;51.208;8.904;2022-11-20T03:55:03;-1.80;99.90
8715;DHT22;4394;51.208;8.904;2022-11-20T03:57:51;-1.80;99.90
8715;DHT22;4394;51.208;8.904;2022-11-20T04:00:39;-1.80;99.90
8715;DHT22;4394;51.208;8.904;2022-11-20T04:03:28;-1.80;99.90
8715;DHT22;4394;51.208;8.904;2022-11-20T04:06:19;-1.80;99.90
8715;DHT22;4394;51.208;8.904;2022-11-20T04:09:07;-1.80;99.90
8715;DHT22;4394;51.208;8.904;2022-11-20T04:11:55;-1.80;99.90
8715;DHT22;4394;51.208;8.904;2022-11-20T04:14:44;-1.80;99.90
8715;DHT22;4394;51.208;8.904;2022-11-20T04:17:32;-1.90;99.90
8715;DHT22;4394;51.208;8.904;2022-11-20T04:20:20;-1.90;99.90
8715;DHT22;4394;51.208;8.904;2022-11-20T04:23:09;-1.90;99.90
8715;DHT22;4394;51.208;8.904;2022-11-20T04:26:01;-1.80;99.90
8715;DHT22;4394;51.208;8.904;2022-11-20T04:28:49;-1.80;99.90
8715;DHT22;4394;51.208;8.904;2022-11-20T04:31:38;-1.70;99.90
8715;DHT22;4394;51.208;8.904;2022-11-20T04:34:26;-1.80;99.90
8715;DHT22;4394;51.208;8.904;2022-11-20T04:37:14;-1.80;99.90
8715;DHT22;4394;51.208;8.904;2022-11-20T04:40:05;-1.80;99.90
8715;DHT22;4394;51.208;8.904;2022-11-20T04:42:53;-1.90;99.90
8715;DHT22;4394;51.208;8.904;2022-11-20T04:45:41;-1.90;99.90
8715;DHT22;4394;51.208;8.904;2022-11-20T04:48:29;-1.90;99.90
8715;DHT22;4394;51.208;8.904;2022-11-20T04:51:18;-1.90;99.90
8715;DHT22;4394;51.208;8.904;2022-11-20T04:54:06;-1.90;99.90
8715;DHT22;4394;51.208;8.904;2022-11-20T04:56:55;-1.90;99.90
8715;DHT22;4394;51.208;8.904;2022-11-20T04:59:43;-2.00;99.90
8715;DHT22;4394;51.208;8.904;2022-11-20T05:02:32;-2.00;99.90
8715;DHT22;4394;51.208;8.904;2022-11-20T05:05:20;-2.10;99.90
8715;DHT22;4394;51.208;8.904;2022-11-20T05:08:08;-2.20;99.90
8715;DHT22;4394;51.208;8.904;2022-11-20T05:11:00;-2.20;99.90
8715;DHT22;4394;51.208;8.904;2022-11-20T05:13:50;-2.20;99.90
8715;DHT22;4394;51.208;8.904;2022-11-20T05:16:39;-2.20;99.90
8715;DHT22;4394;51.208;8.904;2022-11-20T05:19:27;-2.30;99.90
8715;DHT22;4394;51.208;8.904;2022-11-20T05:22:15;-2.20;99.90
8715;DHT22;4394;51.208;8.904;2022-11-20T05:25:03;-2.30;99.90
8715;DHT22;4394;51.208;8.904;2022-11-20T05:27:53;-2.30;99.90
8715;DHT22;4394;51.208;8.904;2022-11-20T05:30:42;-2.40;99.90
8715;DHT22;4394;51.208;8.904;2022-11-20T05:33:30;-2.50;99.90
8715;DHT22;4394;51.208;8.904;2022-11-20T05:36:18;-2.50;99.90
8715;DHT22;4394;51.208;8.904;2022-11-20T05:39:07;-2.60;99.90
8715;DHT22;4394;51.208;8.904;2022-11-20T05:41:55;-2.60;99.90
8715;DHT22;4394;51.208;8.904;2022-11-20T05:44:57;-2.50;99.90
8715;DHT22;4394;51.208;8.904;2022-11-20T05:47:46;-2.60;99.90
8715;DHT22;4394;51.208;8.904;2022-11-20T05:50:35;-2.60;99.90
8715;DHT22;4394;51.208;8.904;2022-11-20T05:53:23;-2.50;99.90
8715;DHT22;4394;51.208;8.904;2022-11-20T05:56:15;-2.50;99.90
8715;DHT22;4394;51.208;8.904;2022-11-20T05:59:03;-2.50;99.90
8715;DHT22;4394;51.208;8.904;2022-11-20T06:01:51;-2.40;99.90
8715;DHT22;4394;51.208;8.904;2022-11-20T06:04:41;-2.40;99.90
8715;DHT22;4394;51.208;8.904;2022-11-20T06:07:29;-2.40;99.90
8715;DHT22;4394;51.208;8.904;2022-11-20T06:10:17;-2.30;99.90
8715;DHT22;4394;51.208;8.904;2022-11-20T06:13:05;-2.30;99.90
8715;DHT22;4394;51.208;8.904;2022-11-20T06:15:53;-2.30;99.90
8715;DHT22;4394;51.208;8.904;2022-11-20T06:18:42;-2.30;99.90
8715;DHT22;4394;51.208;8.904;2022-11-20T06:21:31;-2.30;99.90
8715;DHT22;4394;51.208;8.904;2022-11-20T06:24:19;-2.30;99.90
8715;DHT22;4394;51.208;8.904;2022-11-20T06:27:07;-2.30;99.90
8715;DHT22;4394;51.208;8.904;2022-11-20T06:29:55;-2.40;99.90
8715;DHT22;4394;51.208;8.904;2022-11-20T06:32:43;-2.30;99.90
8715;DHT22;4394;51.208;8.904;2022-11-20T06:35:32;-2.30;99.90
8715;DHT22;4394;51.208;8.904;2022-11-20T06:38:21;-2.30;99.90
8715;DHT22;4394;51.208;8.904;2022-11-20T06:41:11;-2.30;99.90
8715;DHT22;4394;51.208;8.904;2022-11-20T06:44:00;-2.30;99.90
8715;DHT22;4394;51.208;8.904;2022-11-20T06:46:48;-2.20;99.90
8715;DHT22;4394;51.208;8.904;2022-11-20T06:49:36;-2.20;99.90
8715;DHT22;4394;51.208;8.904;2022-11-20T06:52:25;-2.10;99.90
8715;DHT22;4394;51.208;8.904;2022-11-20T06:55:14;-2.10;99.90
8715;DHT22;4394;51.208;8.904;2022-11-20T06:58:02;-2.10;99.90
8715;DHT22;4394;51.208;8.904;2022-11-20T07:00:50;-2.00;99.90
8715;DHT22;4394;51.208;8.904;2022-11-20T07:03:39;-1.90;99.90
8715;DHT22;4394;51.208;8.904;2022-11-20T07:06:27;-1.80;99.90
8715;DHT22;4394;51.208;8.904;2022-11-20T07:09:15;-1.70;99.90
8715;DHT22;4394;51.208;8.904;2022-11-20T07:12:05;-1.80;99.90
8715;DHT22;4394;51.208;8.904;2022-11-20T07:14:53;-1.80;99.90
8715;DHT22;4394;51.208;8.904;2022-11-20T07:17:42;-1.80;99.90
8715;DHT22;4394;51.208;8.904;2022-11-20T07:20:30;-1.80;99.90
8715;DHT22;4394;51.208;8.904;2022-11-20T07:23:18;-1.80;99.90
8715;DHT22;4394;51.208;8.904;2022-11-20T07:26:07;-1.80;99.90
8715;DHT22;4394;51.208;8.904;2022-11-20T07:28:57;-1.90;99.90
8715;DHT22;4394;51.208;8.904;2022-11-20T07:31:45;-2.00;99.90
8715;DHT22;4394;51.208;8.904;2022-11-20T07:34:33;-2.10;99.90
8715;DHT22;4394;51.208;8.904;2022-11-20T07:37:22;-2.10;99.90
8715;DHT22;4394;51.208;8.904;2022-11-20T07:40:11;-2.10;99.90
8715;DHT22;4394;51.208;8.904;2022-11-20T07:43:00;-2.10;99.90
8715;DHT22;4394;51.208;8.904;2022-11-20T07:45:51;-2.00;99.90
8715;DHT22;4394;51.208;8.904;2022-11-20T07:48:39;-2.00;99.90
8715;DHT22;4394;51.208;8.904;2022-11-20T07:51:32;-1.90;99.90
8715;DHT22;4394;51.208;8.904;2022-11-20T07:54:22;-2.00;99.90
8715;DHT22;4394;51.208;8.904;2022-11-20T07:57:12;-1.90;99.90
8715;DHT22;4394;51.208;8.904;2022-11-20T08:00:01;-1.90;99.90
8715;DHT22;4394;51.208;8.904;2022-11-20T08:02:53;-1.80;99.90
8715;DHT22;4394;51.208;8.904;2022-11-20T08:05:41;-1.80;99.90
8715;DHT22;4394;51.208;8.904;2022-11-20T08:08:30;-1.70;99.90
8715;DHT22;4394;51.208;8.904;2022-11-20T08:11:23;-1.70;99.90
8715;DHT22;4394;51.208;8.904;2022-11-20T08:14:29;-1.80;99.90
8715;DHT22;4394;51.208;8.904;2022-11-20T08:17:17;-1.60;99.90
8715;DHT22;4394;51.208;8.904;2022-11-20T08:20:08;-1.50;99.90
8715;DHT22;4394;51.208;8.904;2022-11-20T08:22:59;-1.40;99.90
8715;DHT22;4394;51.208;8.904;2022-11-20T08:25:50;-1.40;99.90
8715;DHT22;4394;51.208;8.904;2022-11-20T08:28:38;-1.30;99.90
8715;DHT22;4394;51.208;8.904;2022-11-20T08:31:27;-1.30;99.90
8715;DHT22;4394;51.208;8.904;2022-11-20T08:34:15;-1.30;99.90
8715;DHT22;4394;51.208;8.904;2022-11-20T08:37:06;-1.30;99.90
8715;DHT22;4394;51.208;8.904;2022-11-20T08:39:54;-1.30;99.90
8715;DHT22;4394;51.208;8.904;2022-11-20T08:42:47;-1.30;99.90
8715;DHT22;4394;51.208;8.904;2022-11-20T08:45:36;-1.20;99.90
8715;DHT22;4394;51.208;8.904;2022-11-20T08:48:24;-1.20;99.90
8715;DHT22;4394;51.208;8.904;2022-11-20T08:51:12;-1.20;99.90
8715;DHT22;4394;51.208;8.904;2022-11-20T08:54:03;-1.10;99.90
8715;DHT22;4394;51.208;8.904;2022-11-20T08:56:51;-1.00;99.90
8715;DHT22;4394;51.208;8.904;2022-11-20T08:59:39;-1.00;99.90
8715;DHT22;4394;51.208;8.904;2022-11-20T09:02:47;-1.00;99.90
8715;DHT22;4394;51.208;8.904;2022-11-20T09:05:38;-0.90;99.90
8715;DHT22;4394;51.208;8.904;2022-11-20T09:08:27;-0.80;99.90
8715;DHT22;4394;51.208;8.904;2022-11-20T09:11:16;-0.70;99.90
8715;DHT22;4394;51.208;8.904;2022-11-20T09:14:04;-0.70;99.90
8715;DHT22;4394;51.208;8.904;2022-11-20T09:16:52;-0.60;99.90
8715;DHT22;4394;51.208;8.904;2022-11-20T09:19:41;-0.50;99.90
8715;DHT22;4394;51.208;8.904;2022-11-20T09:22:29;-0.50;99.90
8715;DHT22;4394;51.208;8.904;2022-11-20T09:25:17;-0.50;99.90
8715;DHT22;4394;51.208;8.904;2022-11-20T09:28:07;-0.50;99.90
8715;DHT22;4394;51.208;8.904;2022-11-20T09:30:56;-0.40;99.90
8715;DHT22;4394;51.208;8.904;2022-11-20T09:33:44;-0.30;99.90
8715;DHT22;4394;51.208;8.904;2022-11-20T09:36:32;-0.30;99.90
8715;DHT22;4394;51.208;8.904;2022-11-20T09:39:20;-0.20;99.90
8715;DHT22;4394;51.208;8.904;2022-11-20T09:42:27;-0.20;99.90
8715;DHT22;4394;51.208;8.904;2022-11-20T09:45:28;-0.10;99.90
8715;DHT22;4394;51.208;8.904;2022-11-20T09:48:29;0.00;99.90
8715;DHT22;4394;51.208;8.904;2022-11-20T09:51:27;0.10;99.90
8715;DHT22;4394;51.208;8.904;2022-11-20T09:54:19;0.10;99.90
8715;DHT22;4394;51.208;8.904;2022-11-20T09:57:12;0.20;99.90
8715;DHT22;4394;51.208;8.904;2022-11-20T10:00:05;0.30;99.90
8715;DHT22;4394;51.208;8.904;2022-11-20T10:02:57;0.40;99.90
8715;DHT22;4394;51.208;8.904;2022-11-20T10:05:48;0.50;99.90
8715;DHT22;4394;51.208;8.904;2022-11-20T10:08:43;0.60;99.90
8715;DHT22;4394;51.208;8.904;2022-11-20T10:11:40;0.70;99.90
8715;DHT22;4394;51.208;8.904;2022-11-20T10:14:41;0.80;99.90
8715;DHT22;4394;51.208;8.904;2022-11-20T10:17:51;0.90;99.90
8715;DHT22;4394;51.208;8.904;2022-11-20T10:20:48;0.90;99.90
8715;DHT22;4394;51.208;8.904;2022-11-20T10:23:52;1.00;99.90
8715;DHT22;4394;51.208;8.904;2022-11-20T10:26:47;1.10;99.90
8715;DHT22;4394;51.208;8.904;2022-11-20T10:29:43;1.20;99.90
8715;DHT22;4394;51.208;8.904;2022-11-20T10:32:36;1.20;99.90
8715;DHT22;4394;51.208;8.904;2022-11-20T10:35:28;1.20;99.90
8715;DHT22;4394;51.208;8.904;2022-11-20T10:38:24;1.40;99.90
8715;DHT22;4394;51.208;8.904;2022-11-20T10:41:17;1.50;99.90
8715;DHT22;4394;51.208;8.904;2022-11-20T10:44:17;1.50;99.90
8715;DHT22;4394;51.208;8.904;2022-11-20T10:47:30;1.70;99.90
8715;DHT22;4394;51.208;8.904;2022-11-20T10:50:21;1.70;99.90
8715;DHT22;4394;51.208;8.904;2022-11-20T10:53:19;1.80;99.90
8715;DHT22;4394;51.208;8.904;2022-11-20T10:56:18;1.90;99.90
8715;DHT22;4394;51.208;8.904;2022-11-20T10:59:38;1.90;99.90
8715;DHT22;4394;51.208;8.904;2022-11-20T11:02:35;2.00;99.90
8715;DHT22;4394;51.208;8.904;2022-11-20T11:05:32;2.00;99.90
8715;DHT22;4394;51.208;8.904;2022-11-20T11:08:21;2.10;99.90
8715;DHT22;4394;51.208;8.904;2022-11-20T11:11:15;2.10;99.90
8715;DHT22;4394;51.208;8.904;2022-11-20T11:14:06;2.10;99.90
8715;DHT22;4394;51.208;8.904;2022-11-20T11:16:54;2.00;99.90
8715;DHT22;4394;51.208;8.904;2022-11-20T11:19:42;2.00;99.90
8715;DHT22;4394;51.208;8.904;2022-11-20T11:22:31;2.00;99.90
8715;DHT22;4394;51.208;8.904;2022-11-20T11:25:27;1.90;99.90
8715;DHT22;4394;51.208;8.904;2022-11-20T11:28:23;1.90;99.90
8715;DHT22;4394;51.208;8.904;2022-11-20T11:31:21;1.80;99.90
8715;DHT22;4394;51.208;8.904;2022-11-20T11:34:11;1.80;99.90
8715;DHT22;4394;51.208;8.904;2022-11-20T11:37:00;1.80;99.90
8715;DHT22;4394;51.208;8.904;2022-11-20T11:39:50;1.90;99.90
8715;DHT22;4394;51.208;8.904;2022-11-20T11:42:59;1.90;99.90
8715;DHT22;4394;51.208;8.904;2022-11-20T11:45:53;2.10;99.90
8715;DHT22;4394;51.208;8.904;2022-11-20T11:48:41;2.20;99.90
8715;DHT22;4394;51.208;8.904;2022-11-20T11:51:37;2.40;99.90
8715;DHT22;4394;51.208;8.904;2022-11-20T11:54:30;2.50;99.90
8715;DHT22;4394;51.208;8.904;2022-11-20T11:57:20;2.60;99.90
8715;DHT22;4394;51.208;8.904;2022-11-20T12:00:12;2.70;99.90
8715;DHT22;4394;51.208;8.904;2022-11-20T12:03:04;2.80;99.90
8715;DHT22;4394;51.208;8.904;2022-11-20T12:05:55;2.80;99.90
8715;DHT22;4394;51.208;8.904;2022-11-20T12:08:47;2.90;99.90
8715;DHT22;4394;51.208;8.904;2022-11-20T12:11:38;3.00;99.90
8715;DHT22;4394;51.208;8.904;2022-11-20T12:14:29;3.00;99.90
8715;DHT22;4394;51.208;8.904;2022-11-20T12:17:19;2.90;99.90
8715;DHT22;4394;51.208;8.904;2022-11-20T12:20:13;2.90;99.90
8715;DHT22;4394;51.208;8.904;2022-11-20T12:23:02;2.80;99.90
8715;DHT22;4394;51.208;8.904;2022-11-20T12:25:53;2.80;99.90
8715;DHT22;4394;51.208;8.904;2022-11-20T12:28:45;2.70;99.90
8715;DHT22;4394;51.208;8.904;2022-11-20T12:31:44;2.70;99.90
8715;DHT22;4394;51.208;8.904;2022-11-20T12:34:39;2.70;99.90
8715;DHT22;4394;51.208;8.904;2022-11-20T12:37:35;2.60;99.90
8715;DHT22;4394;51.208;8.904;2022-11-20T12:40:28;2.70;99.90
8715;DHT22;4394;51.208;8.904;2022-11-20T12:43:19;2.80;99.90
8715;DHT22;4394;51.208;8.904;2022-11-20T12:46:27;2.90;99.90
8715;DHT22;4394;51.208;8.904;2022-11-20T12:49:22;2.90;99.90
8715;DHT22;4394;51.208;8.904;2022-11-20T12:52:19;3.00;99.90
8715;DHT22;4394;51.208;8.904;2022-11-20T12:55:17;3.00;99.90
8715;DHT22;4394;51.208;8.904;2022-11-20T12:58:11;3.10;99.90
8715;DHT22;4394;51.208;8.904;2022-11-20T13:01:03;3.10;99.90
8715;DHT22;4394;51.208;8.904;2022-11-20T13:04:19;3.10;99.90
8715;DHT22;4394;51.208;8.904;2022-11-20T13:07:12;3.10;99.90
8715;DHT22;4394;51.208;8.904;2022-11-20T13:10:03;3.10;99.90
8715;DHT22;4394;51.208;8.904;2022-11-20T13:13:00;3.10;99.90
8715;DHT22;4394;51.208;8.904;2022-11-20T13:15:50;3.10;99.90
8715;DHT22;4394;51.208;8.904;2022-11-20T13:18:41;3.10;99.90
8715;DHT22;4394;51.208;8.904;2022-11-20T13:21:37;3.20;99.90
8715;DHT22;4394;51.208;8.904;2022-11-20T13:24:26;3.20;99.90
8715;DHT22;4394;51.208;8.904;2022-11-20T13:27:18;3.20;99.90
8715;DHT22;4394;51.208;8.904;2022-11-20T13:30:14;3.10;99.90
8715;DHT22;4394;51.208;8.904;2022-11-20T13:33:06;3.20;99.90
8715;DHT22;4394;51.208;8.904;2022-11-20T13:35:58;3.20;99.90
8715;DHT22;4394;51.208;8.904;2022-11-20T13:38:47;3.30;99.90
8715;DHT22;4394;51.208;8.904;2022-11-20T13:41:36;3.20;99.90
8715;DHT22;4394;51.208;8.904;2022-11-20T13:44:27;3.20;99.90
8715;DHT22;4394;51.208;8.904;2022-11-20T13:47:21;3.10;99.90
8715;DHT22;4394;51.208;8.904;2022-11-20T13:50:13;3.10;99.90
8715;DHT22;4394;51.208;8.904;2022-11-20T13:53:03;3.00;99.90
8715;DHT22;4394;51.208;8.904;2022-11-20T13:55:54;3.00;99.90
8715;DHT22;4394;51.208;8.904;2022-11-20T13:58:49;3.00;99.90
8715;DHT22;4394;51.208;8.904;2022-11-20T14:01:39;3.10;99.90
8715;DHT22;4394;51.208;8.904;2022-11-20T14:04:32;3.10;99.90
8715;DHT22;4394;51.208;8.904;2022-11-20T14:07:22;3.10;99.90
8715;DHT22;4394;51.208;8.904;2022-11-20T14:10:18;3.10;99.90
8715;DHT22;4394;51.208;8.904;2022-11-20T14:13:10;3.10;99.90
8715;DHT22;4394;51.208;8.904;2022-11-20T14:15:58;3.10;99.90
8715;DHT22;4394;51.208;8.904;2022-11-20T14:18:47;3.10;99.90
8715;DHT22;4394;51.208;8.904;2022-11-20T14:21:36;3.10;99.90
8715;DHT22;4394;51.208;8.904;2022-11-20T14:24:24;3.10;99.90
8715;DHT22;4394;51.208;8.904;2022-11-20T14:27:14;3.10;99.90
8715;DHT22;4394;51.208;8.904;2022-11-20T14:30:03;3.00;99.90
8715;DHT22;4394;51.208;8.904;2022-11-20T14:32:51;3.10;99.90
8715;DHT22;4394;51.208;8.904;2022-11-20T14:35:43;3.00;99.90
8715;DHT22;4394;51.208;8.904;2022-11-20T14:38:33;3.00;99.90
8715;DHT22;4394;51.208;8.904;2022-11-20T14:41:22;2.90;99.90
8715;DHT22;4394;51.208;8.904;2022-11-20T14:44:11;2.90;99.90
8715;DHT22;4394;51.208;8.904;2022-11-20T14:46:59;2.90;99.90
8715;DHT22;4394;51.208;8.904;2022-11-20T14:49:48;2.90;99.90
8715;DHT22;4394;51.208;8.904;2022-11-20T14:52:36;2.90;99.90
8715;DHT22;4394;51.208;8.904;2022-11-20T14:55:26;2.90;99.90
8715;DHT22;4394;51.208;8.904;2022-11-20T14:58:20;2.90;99.90
8715;DHT22;4394;51.208;8.904;2022-11-20T15:01:12;2.90;99.90
8715;DHT22;4394;51.208;8.904;2022-11-20T15:04:01;2.90;99.90
8715;DHT22;4394;51.208;8.904;2022-11-20T15:06:53;2.80;99.90
8715;DHT22;4394;51.208;8.904;2022-11-20T15:09:42;2.80;99.90
8715;DHT22;4394;51.208;8.904;2022-11-20T15:12:31;2.80;99.90
8715;DHT22;4394;51.208;8.904;2022-11-20T15:15:21;2.80;99.90
8715;DHT22;4394;51.208;8.904;2022-11-20T15:18:11;2.80;99.90
8715;DHT22;4394;51.208;8.904;2022-11-20T15:21:01;2.90;99.90
8715;DHT22;4394;51.208;8.904;2022-11-20T15:23:49;2.80;99.90
8715;DHT22;4394;51.208;8.904;2022-11-20T15:26:37;2.80;99.90
8715;DHT22;4394;51.208;8.904;2022-11-20T15:29:30;2.70;99.90
8715;DHT22;4394;51.208;8.904;2022-11-20T15:32:18;2.70;99.90
8715;DHT22;4394;51.208;8.904;2022-11-20T15:35:06;2.70;99.90
8715;DHT22;4394;51.208;8.904;2022-11-20T15:37:54;2.80;99.90
8715;DHT22;4394;51.208;8.904;2022-11-20T15:40:42;2.80;99.90
8715;DHT22;4394;51.208;8.904;2022-11-20T15:43:30;2.80;99.90
8715;DHT22;4394;51.208;8.904;2022-11-20T15:46:22;2.90;99.90
8715;DHT22;4394;51.208;8.904;2022-11-20T15:49:13;2.90;99.90
8715;DHT22;4394;51.208;8.904;2022-11-20T15:52:01;2.90;99.90
8715;DHT22;4394;51.208;8.904;2022-11-20T15:54:49;2.90;99.90
8715;DHT22;4394;51.208;8.904;2022-11-20T15:57:37;2.80;99.90
8715;DHT22;4394;51.208;8.904;2022-11-20T16:00:25;2.80;99.90
8715;DHT22;4394;51.208;8.904;2022-11-20T16:03:15;2.80;99.90
8715;DHT22;4394;51.208;8.904;2022-11-20T16:06:04;2.80;99.90
8715;DHT22;4394;51.208;8.904;2022-11-20T16:08:52;2.80;99.90
8715;DHT22;4394;51.208;8.904;2022-11-20T16:11:40;2.80;99.90
8715;DHT22;4394;51.208;8.904;2022-11-20T16:14:28;2.80;99.90
8715;DHT22;4394;51.208;8.904;2022-11-20T16:17:33;2.80;99.90
8715;DHT22;4394;51.208;8.904;2022-11-20T16:20:31;2.80;99.90
8715;DHT22;4394;51.208;8.904;2022-11-20T16:23:19;2.80;99.90
8715;DHT22;4394;51.208;8.904;2022-11-20T16:26:11;2.70;99.90
8715;DHT22;4394;51.208;8.904;2022-11-20T16:28:59;2.70;99.90
8715;DHT22;4394;51.208;8.904;2022-11-20T16:31:47;2.70;99.90
8715;DHT22;4394;51.208;8.904;2022-11-20T16:34:35;2.70;99.90
8715;DHT22;4394;51.208;8.904;2022-11-20T16:37:25;2.60;99.90
8715;DHT22;4394;51.208;8.904;2022-11-20T16:40:13;2.60;99.90
8715;DHT22;4394;51.208;8.904;2022-11-20T16:43:06;2.60;99.90
8715;DHT22;4394;51.208;8.904;2022-11-20T16:45:54;2.60;99.90
8715;DHT22;4394;51.208;8.904;2022-11-20T16:48:42;2.60;99.90
8715;DHT22;4394;51.208;8.904;2022-11-20T16:51:31;2.60;99.90
8715;DHT22;4394;51.208;8.904;2022-11-20T16:54:21;2.70;99.90
8715;DHT22;4394;51.208;8.904;2022-11-20T16:57:09;2.60;99.90
8715;DHT22;4394;51.208;8.904;2022-11-20T16:59:58;2.60;99.90
8715;DHT22;4394;51.208;8.904;2022-11-20T17:02:48;2.60;99.90
8715;DHT22;4394;51.208;8.904;2022-11-20T17:05:36;2.60;99.90
8715;DHT22;4394;51.208;8.904;2022-11-20T17:08:25;2.60;99.90
8715;DHT22;4394;51.208;8.904;2022-11-20T17:11:18;2.60;99.90
8715;DHT22;4394;51.208;8.904;2022-11-20T17:14:06;2.60;99.90
8715;DHT22;4394;51.208;8.904;2022-11-20T17:16:54;2.60;99.90
8715;DHT22;4394;51.208;8.904;2022-11-20T17:19:42;2.60;99.90
8715;DHT22;4394;51.208;8.904;2022-11-20T17:22:30;2.60;99.90
8715;DHT22;4394;51.208;8.904;2022-11-20T17:25:18;2.60;99.90
8715;DHT22;4394;51.208;8.904;2022-11-20T17:28:08;2.60;99.90
8715;DHT22;4394;51.208;8.904;2022-11-20T17:30:58;2.50;99.90
8715;DHT22;4394;51.208;8.904;2022-11-20T17:33:46;2.50;99.90
8715;DHT22;4394;51.208;8.904;2022-11-20T17:36:34;2.60;99.90
8715;DHT22;4394;51.208;8.904;2022-11-20T17:39:32;2.60;99.90
8715;DHT22;4394;51.208;8.904;2022-11-20T17:42:20;2.60;99.90
8715;DHT22;4394;51.208;8.904;2022-11-20T17:45:17;2.60;99.90
8715;DHT22;4394;51.208;8.904;2022-11-20T17:48:05;2.60;99.90
8715;DHT22;4394;51.208;8.904;2022-11-20T17:50:58;2.60;99.90
8715;DHT22;4394;51.208;8.904;2022-11-20T17:53:47;2.60;99.90
8715;DHT22;4394;51.208;8.904;2022-11-20T17:56:35;2.70;99.90
8715;DHT22;4394;51.208;8.904;2022-11-20T17:59:40;2.70;99.90
8715;DHT22;4394;51.208;8.904;2022-11-20T18:02:30;2.70;99.90
8715;DHT22;4394;51.208;8.904;2022-11-20T18:05:18;2.70;99.90
8715;DHT22;4394;51.208;8.904;2022-11-20T18:08:05;2.70;99.90
8715;DHT22;4394;51.208;8.904;2022-11-20T18:10:53;2.70;99.90
8715;DHT22;4394;51.208;8.904;2022-11-20T18:13:42;2.70;99.90
8715;DHT22;4394;51.208;8.904;2022-11-20T18:16:47;2.80;99.90
8715;DHT22;4394;51.208;8.904;2022-11-20T18:19:38;2.80;99.90
8715;DHT22;4394;51.208;8.904;2022-11-20T18:22:46;2.80;99.90
8715;DHT22;4394;51.208;8.904;2022-11-20T18:25:34;2.90;99.90
8715;DHT22;4394;51.208;8.904;2022-11-20T18:28:23;2.80;99.90
8715;DHT22;4394;51.208;8.904;2022-11-20T18:31:12;2.90;99.90
8715;DHT22;4394;51.208;8.904;2022-11-20T18:34:03;2.90;99.90
8715;DHT22;4394;51.208;8.904;2022-11-20T18:36:53;2.90;99.90
8715;DHT22;4394;51.208;8.904;2022-11-20T18:39:41;2.90;99.90
8715;DHT22;4394;51.208;8.904;2022-11-20T18:42:29;2.90;99.90